PWSweather.com
Personal Weather Stations
Station Observations
47433
Washington Township, Gosport, IN 47433

Washington TownshipGosport, IN 47433

Lat: 39.3035927, Lon: -86.6240234

Elevation: 700

Station Type: Ambient Weather WS2080

http://www.gosportwx.com/

Latest ConditionsUpdated 4:26:39 AM EDT Friday, Aug 18, 2017
Currently Today's Max Today's Min Today's Average
Temperature 70.9°F21.6°C 75.2°F24.0°C 70.9°F21.6°C 73.3°F22.9°C
Dew Point 65.5°F18.6°C 67.6°F19.8°C 65.5°F18.6°C 66.7°F19.3°C
Winds Calm Calm 2.0 mph WSW3.2 kmh WSW - 1.0 mph 1.6 kmh
Wind Gusts 3.9 mph6.3 kmh 7.8 mph12.6 kmh - -
Humidity 83% 83% 76% 80%
Pressure 29.88 in1011.9 mb 29.90 in1012.5 mb 29.87 in1011.5 mb -
Hour Temp Dew Point Humidity Winds Wind Gusts Pressure Precip Precip Rate Daily Precip Total
04:26 AM 70.9°F21.6°C 65.5°F18.6°C 83% Calm Calm 3.9 mph6.3 kmh 29.88 in1011.9 mb 0.00 in0.0 mm 0.00 in0.0 mm 0.00 in0.0 mm
04:19 AM 71.1°F21.7°C 65.7°F18.7°C 83% Calm Calm 5.6 mph9.0 kmh 29.88 in1011.9 mb 0.00 in0.0 mm 0.00 in0.0 mm 0.00 in0.0 mm
04:12 AM 71.2°F21.8°C 65.8°F18.8°C 83% 2.0 mph W3.2 kmh W 5.6 mph9.0 kmh 29.89 in1012.2 mb 0.00 in0.0 mm 0.00 in0.0 mm 0.00 in0.0 mm
04:05 AM 71.6°F22.0°C 65.8°F18.8°C 82% 0.8 mph W1.3 kmh W 5.6 mph9.0 kmh 29.88 in1011.9 mb 0.00 in0.0 mm 0.00 in0.0 mm 0.00 in0.0 mm
03:58 AM 71.6°F22.0°C 65.8°F18.8°C 82% 0.8 mph WSW1.3 kmh WSW 5.6 mph9.0 kmh 29.88 in1011.9 mb 0.00 in0.0 mm 0.00 in0.0 mm 0.00 in0.0 mm
03:51 AM 71.8°F22.1°C 66.0°F18.9°C 82% 2.0 mph WSW3.2 kmh WSW 5.6 mph9.0 kmh 29.88 in1011.9 mb 0.00 in0.0 mm 0.00 in0.0 mm 0.00 in0.0 mm
03:44 AM 72.0°F22.2°C 66.2°F19.0°C 82% 2.0 mph WSW3.2 kmh WSW 5.6 mph9.0 kmh 29.88 in1011.9 mb 0.00 in0.0 mm 0.00 in0.0 mm 0.00 in0.0 mm
03:37 AM 72.1°F22.3°C 66.0°F18.9°C 81% 2.0 mph WSW3.2 kmh WSW 7.8 mph12.6 kmh 29.88 in1011.9 mb 0.00 in0.0 mm 0.00 in0.0 mm 0.00 in0.0 mm
03:30 AM 72.3°F22.4°C 66.2°F19.0°C 81% 0.8 mph W1.3 kmh W 5.6 mph9.0 kmh 29.88 in1011.9 mb 0.00 in0.0 mm 0.00 in0.0 mm 0.00 in0.0 mm
03:23 AM 72.3°F22.4°C 66.2°F19.0°C 81% 2.0 mph WSW3.2 kmh WSW 5.6 mph9.0 kmh 29.88 in1011.9 mb 0.00 in0.0 mm 0.00 in0.0 mm 0.00 in0.0 mm
03:16 AM 72.5°F22.5°C 66.4°F19.1°C 81% Calm Calm 7.8 mph12.6 kmh 29.88 in1011.9 mb 0.00 in0.0 mm 0.00 in0.0 mm 0.00 in0.0 mm
03:09 AM 72.7°F22.6°C 66.5°F19.2°C 81% 2.0 mph WSW3.2 kmh WSW 7.8 mph12.6 kmh 29.87 in1011.5 mb 0.00 in0.0 mm 0.00 in0.0 mm 0.00 in0.0 mm
03:02 AM 72.7°F22.6°C 66.5°F19.2°C 81% 0.8 mph WSW1.3 kmh WSW 5.6 mph9.0 kmh 29.88 in1011.9 mb 0.00 in0.0 mm 0.00 in0.0 mm 0.00 in0.0 mm
02:55 AM 72.7°F22.6°C 66.5°F19.2°C 81% 2.0 mph WSW3.2 kmh WSW 5.6 mph9.0 kmh 29.87 in1011.5 mb 0.00 in0.0 mm 0.00 in0.0 mm 0.00 in0.0 mm
02:48 AM 72.9°F22.7°C 66.7°F19.3°C 81% Calm Calm 5.6 mph9.0 kmh 29.87 in1011.5 mb 0.00 in0.0 mm 0.00 in0.0 mm 0.00 in0.0 mm
02:41 AM 72.9°F22.7°C 66.7°F19.3°C 81% 0.8 mph WSW1.3 kmh WSW 3.9 mph6.3 kmh 29.88 in1011.9 mb 0.00 in0.0 mm 0.00 in0.0 mm 0.00 in0.0 mm
02:34 AM 73.0°F22.8°C 66.5°F19.2°C 80% 0.8 mph WSW1.3 kmh WSW 5.6 mph9.0 kmh 29.88 in1011.9 mb 0.00 in0.0 mm 0.00 in0.0 mm 0.00 in0.0 mm
02:27 AM 73.0°F22.8°C 66.2°F19.0°C 79% 0.8 mph W1.3 kmh W 5.6 mph9.0 kmh 29.87 in1011.5 mb 0.00 in0.0 mm 0.00 in0.0 mm 0.00 in0.0 mm
02:20 AM 73.4°F23.0°C 66.5°F19.2°C 79% 0.8 mph W1.3 kmh W 5.6 mph9.0 kmh 29.88 in1011.9 mb 0.00 in0.0 mm 0.00 in0.0 mm 0.00 in0.0 mm
02:13 AM 73.6°F23.1°C 66.7°F19.3°C 79% 0.8 mph W1.3 kmh W 5.6 mph9.0 kmh 29.88 in1011.9 mb 0.00 in0.0 mm 0.00 in0.0 mm 0.00 in0.0 mm
02:06 AM 73.8°F23.2°C 66.9°F19.4°C 79% 0.8 mph W1.3 kmh W 5.6 mph9.0 kmh 29.87 in1011.5 mb 0.00 in0.0 mm 0.00 in0.0 mm 0.00 in0.0 mm
01:59 AM 73.8°F23.2°C 66.9°F19.4°C 79% 0.8 mph W1.3 kmh W 5.6 mph9.0 kmh 29.87 in1011.5 mb 0.00 in0.0 mm 0.00 in0.0 mm 0.00 in0.0 mm
01:52 AM 73.8°F23.2°C 66.9°F19.4°C 79% 2.0 mph WSW3.2 kmh WSW 5.6 mph9.0 kmh 29.88 in1011.9 mb 0.00 in0.0 mm 0.00 in0.0 mm 0.00 in0.0 mm
01:45 AM 73.9°F23.3°C 67.4°F19.7°C 80% 0.8 mph W1.3 kmh W 5.6 mph9.0 kmh 29.88 in1011.9 mb 0.00 in0.0 mm 0.00 in0.0 mm 0.00 in0.0 mm
01:38 AM 73.9°F23.3°C 67.4°F19.7°C 80% 0.8 mph W1.3 kmh W 5.6 mph9.0 kmh 29.89 in1012.2 mb 0.00 in0.0 mm 0.00 in0.0 mm 0.00 in0.0 mm
01:31 AM 73.8°F23.2°C 67.2°F19.6°C 80% 0.8 mph WSW1.3 kmh WSW 5.6 mph9.0 kmh 29.88 in1011.9 mb 0.00 in0.0 mm 0.00 in0.0 mm 0.00 in0.0 mm
01:24 AM 73.9°F23.3°C 67.4°F19.7°C 80% 0.8 mph WSW1.3 kmh WSW 5.6 mph9.0 kmh 29.89 in1012.2 mb 0.00 in0.0 mm 0.00 in0.0 mm 0.00 in0.0 mm
01:17 AM 73.9°F23.3°C 67.4°F19.7°C 80% 0.8 mph WSW1.3 kmh WSW 3.9 mph6.3 kmh 29.89 in1012.2 mb 0.00 in0.0 mm 0.00 in0.0 mm 0.00 in0.0 mm
01:10 AM 74.1°F23.4°C 67.2°F19.6°C 79% 0.8 mph WSW1.3 kmh WSW 3.9 mph6.3 kmh 29.88 in1011.9 mb 0.00 in0.0 mm 0.00 in0.0 mm 0.00 in0.0 mm
01:03 AM 74.3°F23.5°C 67.4°F19.7°C 79% Calm Calm 3.9 mph6.3 kmh 29.88 in1011.9 mb 0.00 in0.0 mm 0.00 in0.0 mm 0.00 in0.0 mm
12:56 AM 74.5°F23.6°C 67.2°F19.6°C 78% 0.8 mph SW1.3 kmh SW 5.6 mph9.0 kmh 29.88 in1011.9 mb 0.00 in0.0 mm 0.00 in0.0 mm 0.00 in0.0 mm
12:49 AM 74.7°F23.7°C 67.4°F19.7°C 78% 0.8 mph W1.3 kmh W 7.8 mph12.6 kmh 29.88 in1011.9 mb 0.00 in0.0 mm 0.00 in0.0 mm 0.00 in0.0 mm
12:42 AM 74.7°F23.7°C 67.4°F19.7°C 78% 2.0 mph WSW3.2 kmh WSW 7.8 mph12.6 kmh 29.88 in1011.9 mb 0.00 in0.0 mm 0.00 in0.0 mm 0.00 in0.0 mm
12:35 AM 74.8°F23.8°C 67.6°F19.8°C 78% 0.8 mph W1.3 kmh W 5.6 mph9.0 kmh 29.88 in1011.9 mb 0.00 in0.0 mm 0.00 in0.0 mm 0.00 in0.0 mm
12:28 AM 74.8°F23.8°C 67.2°F19.6°C 77% 0.8 mph WSW1.3 kmh WSW 5.6 mph9.0 kmh 29.88 in1011.9 mb 0.00 in0.0 mm 0.00 in0.0 mm 0.00 in0.0 mm
12:21 AM 75.0°F23.9°C 67.4°F19.7°C 77% 0.8 mph WSW1.3 kmh WSW 3.9 mph6.3 kmh 29.89 in1012.2 mb 0.00 in0.0 mm 0.00 in0.0 mm 0.00 in0.0 mm
12:14 AM 75.2°F24.0°C 67.2°F19.6°C 76% 0.8 mph WSW1.3 kmh WSW 3.9 mph6.3 kmh 29.89 in1012.2 mb 0.00 in0.0 mm 0.00 in0.0 mm 0.00 in0.0 mm
12:07 AM 75.2°F24.0°C 67.2°F19.6°C 76% 0.8 mph WSW1.3 kmh WSW 5.6 mph9.0 kmh 29.90 in1012.5 mb 0.00 in0.0 mm 0.00 in0.0 mm 0.00 in0.0 mm
12:00 AM 75.0°F23.9°C 67.0°F19.4°C 76% 0.8 mph WSW1.3 kmh WSW 5.6 mph9.0 kmh 29.89 in1012.2 mb 0.00 in0.0 mm 0.00 in0.0 mm 0.00 in0.0 mm